Time;durP1;ratioP1;P1;durP2;ratioP2;P2;SDS_P1;SDS_P2;PMS_P1;PMS_P2;Temp;Humidity;BMP_temperature;BMP_pressure;BME280_temperature;BME280_humidity;BME280_pressure;Samples;Min_cycle;Max_cycle;Signal;HPM_P1;HPM_P2
2023/01/25 00:00:48;;;;;;;4.22;3.03;;;;;;;19.39;46.13;102311.63;5034049;28;20060;-48
2023/01/25 00:03:15;;;;;;;6.15;3.75;;;;;;;19.39;46.28;102303.59;5034645;28;20049;-46
2023/01/25 00:05:42;;;;;;;4.60;3.38;;;;;;;19.38;46.30;102301.88;5034419;28;20052;-46
2023/01/25 00:08:10;;;;;;;4.70;3.15;;;;;;;19.38;46.09;102307.22;5034758;28;20061;-58
2023/01/25 00:10:37;;;;;;;5.35;3.60;;;;;;;19.37;46.05;102292.09;5034701;28;20049;-47
2023/01/25 00:13:04;;;;;;;3.55;2.83;;;;;;;19.37;46.17;102305.53;5034518;28;20503;-46
2023/01/25 00:15:31;;;;;;;5.25;3.05;;;;;;;19.36;45.99;102301.09;5034459;28;20045;-48
2023/01/25 00:17:59;;;;;;;4.22;3.17;;;;;;;19.37;45.96;102305.53;5034474;28;20487;-58
2023/01/25 00:20:29;;;;;;;6.43;3.30;;;;;;;19.36;46.01;102310.00;5034707;28;20056;-47
2023/01/25 00:22:56;;;;;;;4.88;3.00;;;;;;;19.36;46.07;102306.44;5034427;28;20045;-45
2023/01/25 00:25:24;;;;;;;4.88;3.10;;;;;;;19.36;46.11;102304.63;5034354;28;20046;-48
2023/01/25 00:27:51;;;;;;;3.63;2.80;;;;;;;19.35;45.93;102302.91;5034276;28;20046;-46
2023/01/25 00:30:18;;;;;;;4.60;3.38;;;;;;;19.35;46.22;102294.84;5034432;28;20057;-58
2023/01/25 00:32:48;;;;;;;4.47;3.45;;;;;;;19.35;46.22;102292.16;5034412;28;20050;-58
2023/01/25 00:35:15;;;;;;;4.57;3.03;;;;;;;19.35;46.15;102291.31;5032858;28;20049;-58
2023/01/25 00:37:51;;;;;;;3.97;2.90;;;;;;;19.35;45.95;102304.72;5033466;28;20045;-58
2023/01/25 00:40:18;;;;;;;5.35;3.33;;;;;;;19.34;46.13;102306.56;5034167;28;20060;-47
2023/01/25 00:42:46;;;;;;;4.93;3.15;;;;;;;19.34;46.19;102300.34;5033846;28;20057;-47
2023/01/25 00:45:13;;;;;;;3.47;2.55;;;;;;;19.34;46.25;102294.97;5032532;28;20511;-47
2023/01/25 00:47:41;;;;;;;3.75;2.53;;;;;;;19.34;46.28;102297.66;5033552;28;20411;-48
2023/01/25 00:50:09;;;;;;;4.00;2.83;;;;;;;19.33;46.07;102301.28;5032734;28;20057;-46
2023/01/25 00:52:39;;;;;;;5.55;2.78;;;;;;;19.32;46.08;102303.09;5033634;28;20072;-46
2023/01/25 00:55:07;;;;;;;3.63;3.08;;;;;;;19.32;46.23;102292.34;5032442;28;20072;-47
2023/01/25 00:57:35;;;;;;;3.58;3.08;;;;;;;19.32;46.31;102295.03;5032622;28;20050;-46
2023/01/25 01:00:03;;;;;;;3.72;2.75;;;;;;;19.31;46.25;102296.00;5032778;28;20476;-57
2023/01/25 01:02:30;;;;;;;4.38;3.13;;;;;;;19.31;46.31;102285.25;5033897;28;20048;-57
2023/01/25 01:04:59;;;;;;;3.45;2.67;;;;;;;19.30;46.40;102275.50;5032390;28;20053;-57
2023/01/25 01:07:26;;;;;;;3.65;2.63;;;;;;;19.32;46.28;102280.75;5032620;28;20471;-57
2023/01/25 01:09:54;;;;;;;4.75;3.08;;;;;;;19.30;46.18;102277.31;5032444;28;20049;-58
2023/01/25 01:12:24;;;;;;;4.25;3.15;;;;;;;19.30;46.24;102290.75;5033752;28;20065;-58
2023/01/25 01:14:51;;;;;;;4.47;2.80;;;;;;;19.31;46.45;102290.63;5031875;28;20053;-58
2023/01/25 01:17:18;;;;;;;5.72;3.55;;;;;;;19.30;46.37;102305.03;5033554;28;20048;-57
2023/01/25 01:19:47;;;;;;;3.95;3.13;;;;;;;19.29;46.44;102297.94;5032726;28;20408;-58
2023/01/25 01:22:14;;;;;;;5.30;3.60;;;;;;;19.28;46.49;102298.88;5032334;28;20049;-58
2023/01/25 01:24:41;;;;;;;3.72;2.78;;;;;;;19.29;46.58;102299.75;5033300;28;20050;-58
2023/01/25 01:27:08;;;;;;;3.40;2.58;;;;;;;19.29;46.60;102305.13;5033057;28;20377;-58
2023/01/25 01:29:36;;;;;;;4.18;3.08;;;;;;;19.28;46.61;102306.94;5033806;28;20384;-58
2023/01/25 01:32:03;;;;;;;4.28;2.97;;;;;;;19.28;46.61;102301.56;5033443;28;20053;-59
2023/01/25 01:34:31;;;;;;;5.40;2.65;;;;;;;19.27;46.59;102300.69;5031858;28;20056;-58
2023/01/25 01:36:58;;;;;;;3.65;2.63;;;;;;;19.27;46.53;102292.66;5033375;28;20484;-58
2023/01/25 01:39:25;;;;;;;4.15;2.80;;;;;;;19.26;46.51;102293.59;5031882;28;20064;-46
2023/01/25 01:41:53;;;;;;;4.65;3.22;;;;;;;19.27;46.72;102292.66;5032178;28;20068;-47
2023/01/25 01:44:43;;;;;;;5.15;3.15;;;;;;;19.27;46.85;102303.38;5032935;28;20056;-46
2023/01/25 01:47:17;;;;;;;4.70;2.92;;;;;;;19.27;46.78;102294.47;5032492;28;20050;-49
2023/01/25 01:49:51;;;;;;;4.65;2.60;;;;;;;19.27;46.78;102297.16;5036196;28;20058;-48
2023/01/25 01:52:27;;;;;;;4.65;2.85;;;;;;;19.26;46.77;102290.06;5036055;28;20480;-46
2023/01/25 01:55:10;;;;;;;4.30;2.88;;;;;;;19.26;46.71;102296.28;5035651;28;20515;-46
2023/01/25 01:57:47;;;;;;;4.17;3.00;;;;;;;19.26;46.66;102293.59;5037109;28;20405;-48
2023/01/25 02:00:27;;;;;;;4.65;2.70;;;;;;;19.26;46.91;102288.25;5035652;28;20486;-58
2023/01/25 02:02:54;;;;;;;4.07;2.65;;;;;;;19.26;46.71;102288.25;5035307;28;20049;-58
2023/01/25 02:05:36;;;;;;;3.65;2.80;;;;;;;19.26;46.75;102284.69;5036870;28;20060;-58
2023/01/25 02:08:06;;;;;;;4.60;2.80;;;;;;;19.25;46.81;102283.84;5035729;28;20042;-58
2023/01/25 02:10:35;;;;;;;4.00;3.20;;;;;;;19.24;46.92;102287.50;5035839;28;20413;-46
2023/01/25 02:13:03;;;;;;;4.72;2.90;;;;;;;19.25;46.90;102280.28;5036782;28;20483;-47
2023/01/25 02:15:42;;;;;;;3.92;2.67;;;;;;;19.24;47.00;102287.50;5035768;28;20518;-46
2023/01/25 02:18:10;;;;;;;3.78;2.63;;;;;;;19.24;46.97;102284.81;5036735;28;20049;-46
2023/01/25 02:20:46;;;;;;;3.88;3.20;;;;;;;19.22;47.08;102288.53;5035691;28;20053;-58
2023/01/25 02:23:23;;;;;;;3.53;2.78;;;;;;;19.22;47.10;102275.97;5036663;28;20049;-58
2023/01/25 02:25:50;;;;;;;3.90;2.40;;;;;;;19.23;47.04;102275.00;5036440;28;20041;-58
2023/01/25 02:28:23;;;;;;;4.85;2.58;;;;;;;19.23;46.93;102275.00;5036669;28;20049;-50
2023/01/25 02:30:50;;;;;;;3.67;2.75;;;;;;;19.22;47.18;102270.59;5035481;28;20049;-47
2023/01/25 02:33:17;;;;;;;3.25;2.85;;;;;;;19.22;46.98;102273.28;5036446;28;20400;-51
2023/01/25 02:35:52;;;;;;;4.70;2.35;;;;;;;19.23;47.20;102279.50;5035604;28;20056;-48
2023/01/25 02:38:20;;;;;;;3.67;2.70;;;;;;;19.22;47.31;102272.44;5034802;28;20396;-57
2023/01/25 02:41:05;;;;;;;3.97;2.77;;;;;;;19.21;47.28;102273.38;5034947;28;20054;-58
2023/01/25 02:43:34;;;;;;;3.85;2.67;;;;;;;19.21;47.38;102273.38;5035335;28;20053;-59
2023/01/25 02:46:24;;;;;;;4.97;2.92;;;;;;;19.21;47.32;102265.34;5034521;28;20523;-59
2023/01/25 02:48:54;;;;;;;3.92;2.70;;;;;;;19.20;47.27;102264.47;5035537;28;20050;-58
2023/01/25 02:51:23;;;;;;;7.53;3.20;;;;;;;19.20;47.24;102263.59;5034317;28;20049;-58
2023/01/25 02:53:54;;;;;;;3.70;2.97;;;;;;;19.21;47.23;102262.66;5034498;28;20488;-58
2023/01/25 02:56:22;;;;;;;6.18;2.90;;;;;;;19.20;47.31;102264.47;5034491;28;20049;-57
2023/01/25 02:58:49;;;;;;;4.18;3.25;;;;;;;19.19;47.26;102262.72;5017327;28;20494;-58
2023/01/25 03:01:19;;;;;;;4.32;3.05;;;;;;;19.19;47.09;102254.66;5018186;28;20049;-58
2023/01/25 03:03:46;;;;;;;4.32;2.88;;;;;;;19.20;47.32;102260.91;5034017;28;20045;-58
2023/01/25 03:06:14;;;;;;;3.55;2.40;;;;;;;19.19;47.35;102252.00;5035208;28;20046;-57
2023/01/25 03:08:42;;;;;;;4.10;2.55;;;;;;;19.19;47.30;102251.13;5034151;28;20483;-58
2023/01/25 03:11:10;;;;;;;4.57;2.80;;;;;;;19.18;47.36;102247.59;5034470;28;20045;-58
2023/01/25 03:13:37;;;;;;;5.47;2.80;;;;;;;19.19;47.46;102245.75;5034078;28;20049;-57
2023/01/25 03:16:11;;;;;;;3.55;2.67;;;;;;;19.19;47.41;102243.06;5034344;28;20487;-57
2023/01/25 03:18:41;;;;;;;4.25;2.88;;;;;;;19.18;47.46;102244.91;5034740;28;20057;-48
2023/01/25 03:21:14;;;;;;;4.85;3.10;;;;;;;19.19;47.44;102235.88;5035429;28;20053;-48
2023/01/25 03:23:43;;;;;;;3.67;2.75;;;;;;;19.18;47.37;102234.16;5034069;28;20064;-45
2023/01/25 03:26:19;;;;;;;3.35;2.33;;;;;;;19.18;47.48;102233.31;5034422;28;20056;-46
2023/01/25 03:29:05;;;;;;;4.07;2.35;;;;;;;19.18;47.37;102238.69;5033971;28;20045;-58
2023/01/25 03:31:36;;;;;;;3.80;2.60;;;;;;;19.18;47.41;102227.94;5034229;28;20046;-58
2023/01/25 03:34:04;;;;;;;3.63;2.67;;;;;;;19.18;47.47;102226.09;5033655;28;20049;-58
2023/01/25 03:36:36;;;;;;;3.33;2.60;;;;;;;19.17;47.48;102220.84;5034207;28;20053;-58
2023/01/25 03:39:03;;;;;;;4.57;2.45;;;;;;;19.17;47.45;102227.06;5034135;28;20049;-58
2023/01/25 03:41:36;;;;;;;4.00;2.83;;;;;;;19.16;47.44;102225.34;5033922;28;20064;-57
2023/01/25 03:44:10;;;;;;;3.33;2.38;;;;;;;19.17;47.47;102220.84;5033814;28;20084;-58
2023/01/25 03:46:41;;;;;;;4.60;3.15;;;;;;;19.16;47.49;102222.69;5017318;28;20056;-58
2023/01/25 03:49:08;;;;;;;4.57;2.35;;;;;;;19.17;47.49;102210.97;5035482;28;20041;-47
2023/01/25 03:51:37;;;;;;;3.80;3.08;;;;;;;19.16;47.58;102209.25;5033417;28;20061;-46
2023/01/25 03:54:04;;;;;;;3.55;2.78;;;;;;;19.16;47.48;102211.94;5034902;28;20045;-46
2023/01/25 03:56:34;;;;;;;3.63;2.50;;;;;;;19.16;47.44;102211.94;5033768;28;20046;-47
2023/01/25 03:59:11;;;;;;;3.53;2.35;;;;;;;19.16;47.51;102209.25;5033672;28;20049;-58
2023/01/25 04:01:38;;;;;;;4.63;2.53;;;;;;;19.16;47.48;102200.31;5033344;28;20049;-58
2023/01/25 04:04:07;;;;;;;2.88;2.45;;;;;;;19.16;47.39;102208.38;5033049;28;20053;-58
2023/01/25 04:06:35;;;;;;;3.88;2.70;;;;;;;19.15;47.38;102201.28;5033166;28;20053;-58
2023/01/25 04:09:03;;;;;;;3.60;2.58;;;;;;;19.15;47.56;102202.13;5034759;28;20046;-47
2023/01/25 04:11:37;;;;;;;4.05;2.40;;;;;;;19.14;47.56;102195.06;5033298;28;20053;-46
2023/01/25 04:14:05;;;;;;;3.60;2.65;;;;;;;19.14;47.54;102208.47;5033507;28;20411;-47
2023/01/25 04:16:40;;;;;;;3.90;2.25;;;;;;;19.14;47.67;102208.47;5033074;28;20060;-47
2023/01/25 04:19:28;;;;;;;4.03;2.47;;;;;;;19.13;47.40;102204.06;5034624;28;20045;-58
2023/01/25 04:21:58;;;;;;;3.72;2.58;;;;;;;19.13;47.72;102197.84;5032665;28;20064;-58
2023/01/25 04:24:31;;;;;;;3.50;2.50;;;;;;;19.13;47.58;102204.06;5032651;28;20113;-58
2023/01/25 04:26:58;;;;;;;3.75;2.50;;;;;;;19.14;47.54;102196.88;5032631;28;20050;-57
2023/01/25 04:29:28;;;;;;;3.45;2.47;;;;;;;19.14;47.60;102199.56;5032407;28;20389;-46
2023/01/25 04:32:09;;;;;;;2.92;2.25;;;;;;;19.13;47.52;102198.69;5032885;28;20041;-48
2023/01/25 04:34:37;;;;;;;4.05;2.72;;;;;;;19.14;47.60;102194.19;5032694;28;20053;-46
2023/01/25 04:37:08;;;;;;;3.25;2.42;;;;;;;19.13;47.61;102189.78;5032976;28;20060;-46
2023/01/25 04:39:45;;;;;;;3.72;2.70;;;;;;;19.13;47.45;102198.69;5033127;28;20049;-58
2023/01/25 04:42:12;;;;;;;3.15;2.40;;;;;;;19.14;47.59;102191.50;5033933;28;20053;-58
2023/01/25 04:44:40;;;;;;;4.15;2.45;;;;;;;19.13;47.60;102190.66;5033039;28;20045;-58
2023/01/25 04:47:07;;;;;;;5.22;2.38;;;;;;;19.12;47.66;102188.94;5032781;28;20054;-58
2023/01/25 04:49:35;;;;;;;4.68;3.20;;;;;;;19.12;47.60;102191.63;5033038;28;20357;-47
2023/01/25 04:52:03;;;;;;;3.38;2.50;;;;;;;19.12;47.59;102188.94;5032685;28;20052;-46
2023/01/25 04:54:30;;;;;;;3.53;2.58;;;;;;;19.12;47.51;102186.25;5032590;28;20060;-46
2023/01/25 04:56:58;;;;;;;3.22;2.35;;;;;;;19.11;47.42;102187.19;5032730;28;20511;-47
2023/01/25 04:59:25;;;;;;;2.80;2.10;;;;;;;19.13;47.61;102187.09;5033031;28;20404;-58
2023/01/25 05:01:54;;;;;;;3.72;2.45;;;;;;;19.11;47.71;102187.19;5032303;28;20045;-58
2023/01/25 05:04:21;;;;;;;3.42;2.53;;;;;;;19.12;47.65;102185.34;5016054;28;20385;-57
2023/01/25 05:06:50;;;;;;;3.13;2.50;;;;;;;19.11;47.51;102176.44;5032373;28;20049;-58
2023/01/25 05:09:17;;;;;;;3.60;2.28;;;;;;;19.11;47.67;102184.50;5032768;28;20546;-46
2023/01/25 05:11:46;;;;;;;3.10;2.20;;;;;;;19.11;47.69;102179.13;5032376;28;20054;-46
2023/01/25 05:14:22;;;;;;;4.47;2.60;;;;;;;19.11;47.58;102179.13;5031869;28;20053;-47
2023/01/25 05:16:52;;;;;;;3.42;2.30;;;;;;;19.11;47.71;102189.00;5033374;28;20053;-46
2023/01/25 05:19:19;;;;;;;3.15;2.67;;;;;;;19.11;47.71;102184.50;5032452;28;20494;-59
2023/01/25 05:22:10;;;;;;;3.65;2.53;;;;;;;19.10;47.57;102188.16;5032923;28;20060;-58
2023/01/25 05:24:44;;;;;;;5.53;2.45;;;;;;;19.11;48.01;102187.19;5035692;28;20057;-58
2023/01/25 05:27:16;;;;;;;4.88;2.40;;;;;;;19.10;47.79;102172.03;5035968;28;20053;-59
2023/01/25 05:29:53;;;;;;;4.75;2.33;;;;;;;19.10;47.86;102173.88;5044325;28;20056;-57
2023/01/25 05:32:48;;;;;;;3.60;2.63;;;;;;;19.10;47.89;102174.72;5036814;28;20060;-58
2023/01/25 05:35:17;;;;;;;3.13;2.60;;;;;;;19.09;48.01;102175.69;5037757;28;20064;-58
2023/01/25 05:37:45;;;;;;;3.83;2.78;;;;;;;19.10;47.89;102171.19;5036311;28;20053;-57
2023/01/25 05:40:20;;;;;;;3.55;2.50;;;;;;;19.09;47.86;102170.34;5036662;28;20058;-58
2023/01/25 05:42:57;;;;;;;3.05;2.25;;;;;;;19.09;47.90;102158.75;5036339;28;20423;-57
2023/01/25 05:45:25;;;;;;;3.53;2.25;;;;;;;19.10;47.86;102157.78;5036273;28;20518;-57
2023/01/25 05:47:57;;;;;;;3.80;2.90;;;;;;;19.08;48.07;102155.19;5036126;28;20534;-52
2023/01/25 05:50:25;;;;;;;3.92;2.70;;;;;;;19.10;47.99;102152.41;5036219;28;20049;-58
2023/01/25 05:53:03;;;;;;;3.10;2.50;;;;;;;19.10;48.03;102158.63;5036011;28;20049;-58
2023/01/25 05:55:30;;;;;;;3.35;2.90;;;;;;;19.10;47.98;102158.63;5051807;28;20061;-57
2023/01/25 05:58:04;;;;;;;4.75;2.55;;;;;;;19.12;48.02;102163.88;5020014;28;20045;-57
2023/01/25 06:00:31;;;;;;;4.07;2.65;;;;;;;19.11;48.13;102162.16;5035476;28;20045;-45
2023/01/25 06:03:00;;;;;;;3.72;2.88;;;;;;;19.11;48.12;102165.72;5036722;28;20403;-48
2023/01/25 06:05:29;;;;;;;3.15;2.30;;;;;;;19.11;48.21;102165.72;5035361;28;20049;-47
2023/01/25 06:07:57;;;;;;;5.03;2.75;;;;;;;19.10;48.25;102166.69;5036511;28;20365;-50
2023/01/25 06:10:29;;;;;;;5.53;2.83;;;;;;;19.11;48.40;102156.81;5035967;28;20050;-56
2023/01/25 06:12:58;;;;;;;5.95;2.30;;;;;;;19.11;48.27;102156.81;5035311;28;20046;-58
2023/01/25 06:15:27;;;;;;;3.17;2.58;;;;;;;19.10;48.21;102158.63;5036538;28;20041;-58
2023/01/25 06:18:04;;;;;;;4.53;2.92;;;;;;;19.11;48.36;102162.16;5035496;28;20050;-48
2023/01/25 06:21:04;;;;;;;3.63;2.78;;;;;;;19.11;48.40;102165.72;5036407;28;20053;-58
2023/01/25 06:23:36;;;;;;;5.55;2.97;;;;;;;19.11;48.35;102154.13;5036336;28;20049;-58
2023/01/25 06:26:10;;;;;;;5.05;2.50;;;;;;;19.10;48.35;102158.63;5036483;28;20483;-58
2023/01/25 06:28:38;;;;;;;2.92;2.42;;;;;;;19.10;48.35;102153.25;5036773;28;20407;-58
2023/01/25 06:31:17;;;;;;;3.53;2.60;;;;;;;19.10;48.36;102160.44;5036292;28;20048;-58
2023/01/25 06:33:51;;;;;;;4.68;2.58;;;;;;;19.10;48.18;102155.09;5036483;28;20060;-58
2023/01/25 06:36:21;;;;;;;3.25;2.72;;;;;;;19.09;48.34;102159.59;5034657;28;20515;-58
2023/01/25 06:38:50;;;;;;;3.50;2.53;;;;;;;19.09;48.24;102162.28;5036464;28;20479;-57
2023/01/25 06:41:18;;;;;;;4.65;2.97;;;;;;;19.08;48.25;102160.56;5036057;28;20060;-58
2023/01/25 06:43:49;;;;;;;3.65;2.38;;;;;;;19.09;48.29;102162.28;5036038;28;20045;-58
2023/01/25 06:46:17;;;;;;;4.63;2.40;;;;;;;19.10;48.11;102163.13;5035698;28;20054;-57
2023/01/25 06:48:44;;;;;;;4.32;2.83;;;;;;;19.08;48.16;102144.47;5036216;28;20049;-58
2023/01/25 06:51:13;;;;;;;5.22;2.50;;;;;;;19.09;48.18;102156.06;5035992;28;20049;-57
2023/01/25 06:53:42;;;;;;;3.00;2.60;;;;;;;19.09;48.17;102156.06;5035719;28;20476;-58
2023/01/25 06:56:16;;;;;;;3.33;2.17;;;;;;;19.08;48.18;102157.88;5035869;28;20049;-57
2023/01/25 06:58:45;;;;;;;3.50;2.40;;;;;;;19.09;48.67;102162.28;5035897;28;20506;-48
2023/01/25 07:01:13;;;;;;;3.47;2.63;;;;;;;19.08;48.11;102159.66;5035801;28;20388;-46
2023/01/25 07:03:41;;;;;;;3.78;2.63;;;;;;;19.08;48.16;102162.34;5035925;28;20057;-46
2023/01/25 07:06:10;;;;;;;3.55;2.70;;;;;;;19.09;48.23;102166.78;5035686;28;20492;-46
2023/01/25 07:08:38;;;;;;;3.22;2.45;;;;;;;19.08;48.11;102157.88;5035990;28;20049;-58
2023/01/25 07:11:11;;;;;;;4.18;2.63;;;;;;;19.09;48.15;102158.75;5035653;28;20045;-57
2023/01/25 07:13:46;;;;;;;3.63;2.47;;;;;;;19.09;48.04;102170.34;5035500;28;20076;-57
2023/01/25 07:16:16;;;;;;;4.50;3.63;;;;;;;19.09;47.85;102172.16;5035316;28;20407;-57
2023/01/25 07:18:44;;;;;;;3.88;3.00;;;;;;;19.10;48.32;102172.03;5035255;28;20053;-47
2023/01/25 07:21:19;;;;;;;4.15;2.33;;;;;;;19.10;48.22;102173.88;5034971;28;20042;-49
2023/01/25 07:23:50;;;;;;;4.22;3.08;;;;;;;19.09;48.30;102175.69;5035149;28;20041;-50
2023/01/25 07:26:20;;;;;;;3.15;2.60;;;;;;;19.08;48.27;102179.34;5034891;28;20041;-48
2023/01/25 07:28:48;;;;;;;3.35;2.65;;;;;;;19.09;48.40;102170.34;5034900;28;20052;-58
2023/01/25 07:31:17;;;;;;;3.78;2.45;;;;;;;19.09;48.44;102167.66;5034969;28;20053;-58
2023/01/25 07:33:49;;;;;;;7.03;2.80;;;;;;;19.10;48.43;102160.44;5034892;28;20053;-58
2023/01/25 07:36:17;;;;;;;4.82;2.50;;;;;;;19.09;48.42;102164.97;5035055;28;20049;-57
2023/01/25 07:38:44;;;;;;;7.97;3.35;;;;;;;19.09;48.36;102162.28;5035344;28;20045;-58
2023/01/25 07:41:12;;;;;;;4.55;2.83;;;;;;;19.10;48.25;102160.44;5034987;28;20050;-57
2023/01/25 07:43:39;;;;;;;4.40;2.70;;;;;;;19.11;48.13;102162.16;5034864;28;20073;-57
2023/01/25 07:46:11;;;;;;;6.53;2.47;;;;;;;19.10;48.14;102155.94;5034259;28;20047;-57
2023/01/25 07:48:44;;;;;;;6.38;2.33;;;;;;;19.10;48.22;102166.69;5035132;28;20121;-57
2023/01/25 07:51:11;;;;;;;5.50;2.78;;;;;;;19.11;47.93;102164.84;5034808;28;20052;-57
2023/01/25 07:53:42;;;;;;;4.00;3.10;;;;;;;19.10;48.18;102157.78;5034603;28;20049;-57
2023/01/25 07:56:11;;;;;;;4.72;2.50;;;;;;;19.09;48.18;102164.09;5034707;28;20484;-56
2023/01/25 07:59:07;;;;;;;5.07;2.80;;;;;;;19.09;47.80;102156.91;5044135;28;20045;-57
2023/01/25 08:01:36;;;;;;;4.32;3.00;;;;;;;19.10;47.92;102165.81;5032181;28;20050;-48
2023/01/25 08:04:04;;;;;;;6.30;3.47;;;;;;;19.08;47.68;102163.25;5034438;28;20041;-47
2023/01/25 08:06:37;;;;;;;7.82;4.28;;;;;;;19.09;46.79;102169.47;5034295;28;20146;-46
2023/01/25 08:09:09;;;;;;;6.43;4.97;;;;;;;19.07;45.99;102155.28;5040924;28;20045;-45
2023/01/25 08:11:37;;;;;;;8.07;5.38;;;;;;;19.03;45.56;102151.91;5053789;28;20525;-45
2023/01/25 08:14:04;;;;;;;8.98;5.70;;;;;;;19.01;45.45;102149.34;5053855;28;20051;-46
2023/01/25 08:16:32;;;;;;;6.60;4.97;;;;;;;19.00;45.42;102154.81;5053732;28;20052;-45
2023/01/25 08:19:02;;;;;;;5.93;5.32;;;;;;;18.98;45.19;102167.47;5053389;28;20075;-48
2023/01/25 08:21:32;;;;;;;7.40;5.60;;;;;;;18.97;45.00;102155.00;5052807;28;20467;-46
2023/01/25 08:24:03;;;;;;;6.95;5.47;;;;;;;18.94;45.10;102157.88;5053585;28;20072;-45
2023/01/25 08:26:31;;;;;;;6.80;5.55;;;;;;;18.94;44.71;102155.19;5053775;28;20053;-47
2023/01/25 08:28:59;;;;;;;8.23;5.63;;;;;;;18.93;44.48;102162.38;5053910;28;20052;-57
2023/01/25 08:31:29;;;;;;;8.05;4.60;;;;;;;18.92;44.60;102163.34;5053661;28;20383;-58
2023/01/25 08:33:59;;;;;;;7.28;5.07;;;;;;;18.91;44.61;102160.75;5052869;28;20052;-57
2023/01/25 08:36:27;;;;;;;6.80;4.93;;;;;;;18.88;44.25;102156.47;5053614;28;20056;-57
2023/01/25 08:38:59;;;;;;;6.82;5.47;;;;;;;18.88;44.11;102152.88;5053733;28;20052;-49
2023/01/25 08:41:28;;;;;;;7.97;5.27;;;;;;;18.86;44.21;102144.09;5052331;28;20049;-47
2023/01/25 08:43:56;;;;;;;6.90;4.82;;;;;;;18.87;44.10;102153.84;5053544;28;20277;-50
2023/01/25 08:46:26;;;;;;;7.68;5.63;;;;;;;18.85;43.92;102148.59;5053552;28;20041;-49
2023/01/25 08:48:59;;;;;;;6.60;4.95;;;;;;;18.84;43.91;102140.63;5053486;28;20053;-46
2023/01/25 08:51:28;;;;;;;10.63;5.57;;;;;;;18.83;43.81;102145.13;5053502;28;20033;-48
2023/01/25 08:53:55;;;;;;;6.43;4.70;;;;;;;18.83;43.78;102141.59;5053304;28;20049;-47
2023/01/25 08:56:22;;;;;;;7.22;4.95;;;;;;;18.82;44.04;102139.88;5052901;28;20684;-47
2023/01/25 08:58:50;;;;;;;6.00;4.60;;;;;;;18.83;44.88;102142.44;5052869;28;20048;-47
2023/01/25 09:01:19;;;;;;;8.32;4.05;;;;;;;18.85;45.58;102140.53;5053348;28;20060;-47
2023/01/25 09:03:48;;;;;;;5.45;3.92;;;;;;;18.87;45.81;102148.47;5053390;28;20047;-50
2023/01/25 09:06:17;;;;;;;5.35;3.67;;;;;;;18.89;45.75;102141.22;5053292;28;20483;-49
2023/01/25 09:08:44;;;;;;;4.88;3.40;;;;;;;18.90;45.61;102153.66;5053463;28;20056;-46
2023/01/25 09:11:14;;;;;;;6.35;3.67;;;;;;;18.92;45.51;102151.72;5053485;28;20044;-46
2023/01/25 09:13:42;;;;;;;6.18;3.42;;;;;;;18.92;45.81;102143.69;5053510;28;20056;-45
2023/01/25 09:16:12;;;;;;;6.78;3.50;;;;;;;18.93;45.67;102140.91;5053086;28;20498;-48
2023/01/25 09:18:42;;;;;;;6.25;3.13;;;;;;;18.94;45.58;102134.59;5053228;28;20044;-47
2023/01/25 09:21:12;;;;;;;5.85;3.58;;;;;;;18.94;45.57;102134.59;5052941;28;20049;-46
2023/01/25 09:23:40;;;;;;;5.65;3.30;;;;;;;18.95;45.58;102130.94;5052843;28;20049;-47
2023/01/25 09:26:17;;;;;;;8.30;3.42;;;;;;;18.96;45.47;102142.56;5052926;28;20052;-48
2023/01/25 09:28:49;;;;;;;5.03;3.10;;;;;;;18.95;45.64;102147.03;5053375;28;20054;-47
2023/01/25 09:31:17;;;;;;;6.22;3.33;;;;;;;18.96;45.59;102142.56;5052016;28;20419;-46
2023/01/25 09:34:03;;;;;;;4.10;3.22;;;;;;;18.97;45.59;102141.59;5051935;28;20045;-47
2023/01/25 09:36:31;;;;;;;4.70;3.25;;;;;;;18.97;45.60;102144.28;5053030;28;20049;-46
2023/01/25 09:38:58;;;;;;;5.07;2.63;;;;;;;18.96;45.66;102137.19;5052895;28;20521;-58
2023/01/25 09:41:47;;;;;;;5.45;3.60;;;;;;;18.96;45.69;102134.50;5052784;28;20060;-56
2023/01/25 09:44:26;;;;;;;5.35;3.30;;;;;;;18.95;45.61;102130.94;5052799;28;20056;-58
2023/01/25 09:47:18;;;;;;;4.82;2.72;;;;;;;18.96;45.73;102126.47;5053003;28;20075;-57
2023/01/25 09:50:04;;;;;;;3.80;2.97;;;;;;;18.95;45.63;102124.72;5053126;28;20047;-58
2023/01/25 09:53:07;;;;;;;4.70;2.92;;;;;;;18.95;45.75;102128.25;5052720;28;20049;-58
2023/01/25 09:55:34;;;;;;;6.07;3.30;;;;;;;18.94;45.56;102123.84;5051965;28;20061;-58
2023/01/25 09:58:03;;;;;;;4.40;2.70;;;;;;;18.95;45.62;102127.38;5052665;28;20269;-55
2023/01/25 10:00:37;;;;;;;4.13;3.03;;;;;;;18.94;45.61;102115.81;5052519;28;20463;-56
2023/01/25 10:03:15;;;;;;;4.32;2.85;;;;;;;18.96;45.85;102126.47;5052773;28;20053;-57
2023/01/25 10:05:46;;;;;;;4.80;2.97;;;;;;;18.96;45.72;102115.72;5052645;28;20387;-56
2023/01/25 10:08:57;;;;;;;4.82;3.30;;;;;;;18.95;45.79;102113.97;5053307;28;20425;-45
2023/01/25 10:11:30;;;;;;;4.40;3.00;;;;;;;18.94;45.95;102120.31;5056317;28;20041;-57
2023/01/25 10:13:58;;;;;;;4.40;3.05;;;;;;;18.94;46.27;102114.94;5056196;28;20056;-57
2023/01/25 10:16:44;;;;;;;4.10;3.13;;;;;;;18.92;46.12;102106.13;5056192;28;20407;-56
2023/01/25 10:19:21;;;;;;;5.18;3.17;;;;;;;18.92;46.24;102098.94;5056476;28;20053;-57
2023/01/25 10:21:56;;;;;;;4.00;2.78;;;;;;;18.92;46.11;102096.28;5056209;28;20036;-57
2023/01/25 10:24:58;;;;;;;4.10;2.78;;;;;;;18.91;46.22;102085.63;5056084;28;20056;-57
2023/01/25 10:28:03;;;;;;;4.20;3.10;;;;;;;18.92;46.34;102080.16;5056239;28;20045;-55
2023/01/25 10:31:01;;;;;;;4.70;2.88;;;;;;;18.91;46.29;102085.63;5056394;28;20048;-46
2023/01/25 10:33:31;;;;;;;4.88;2.63;;;;;;;18.92;46.13;102079.28;5056106;28;20041;-45
2023/01/25 10:36:03;;;;;;;;;;;;;;;18.90;46.23;102073.16;5056517;28;20049;-46
2023/01/25 10:38:44;;;;;;;4.53;2.63;;;;;;;18.91;46.41;102073.06;5056127;28;19920;-47
2023/01/25 10:41:27;;;;;;;5.15;3.03;;;;;;;18.92;46.52;102071.22;5055648;28;20060;-48
2023/01/25 10:46:46;;;;;;;3.42;2.63;;;;;;;18.91;46.62;102066.84;5055586;28;20049;-47
2023/01/25 10:49:22;;;;;;;;;;;;;;;18.90;46.48;102055.25;5056387;28;20518;-46
2023/01/25 10:51:50;;;;;;;5.93;3.53;;;;;;;18.89;46.34;102050.84;5054157;28;19921;-50
2023/01/25 10:54:17;;;;;;;6.35;3.72;;;;;;;18.89;46.40;102044.63;5055583;28;20041;-45
2023/01/25 10:56:45;;;;;;;4.82;3.45;;;;;;;18.89;46.47;102047.31;5055225;28;20048;-45
2023/01/25 10:59:39;;;;;;;4.30;2.92;;;;;;;18.88;46.22;102048.25;5055845;28;20049;-46
2023/01/25 11:02:34;;;;;;;5.55;3.50;;;;;;;18.87;46.39;102039.34;5055108;28;20487;-45
2023/01/25 11:05:32;;;;;;;4.63;3.03;;;;;;;18.88;46.40;102033.03;5055414;28;20052;-46
2023/01/25 11:08:30;;;;;;;5.55;3.10;;;;;;;18.88;46.15;102033.03;5055337;28;20044;-46
2023/01/25 11:10:58;;;;;;;5.97;3.17;;;;;;;18.87;46.29;102023.22;5055008;28;20048;-46
2023/01/25 11:13:31;;;;;;;4.60;3.38;;;;;;;18.88;46.36;102013.34;5055388;28;20506;-46
2023/01/25 11:15:58;;;;;;;6.32;3.22;;;;;;;18.87;46.34;102001.75;5055071;28;20045;-45
2023/01/25 11:18:32;;;;;;;4.85;3.75;;;;;;;18.89;46.06;102015.09;5055179;28;20048;-46
2023/01/25 11:21:17;;;;;;;4.03;3.03;;;;;;;18.87;46.12;102007.13;5053559;28;20060;-45
2023/01/25 11:24:10;;;;;;;4.65;3.13;;;;;;;18.87;46.24;101998.22;5054791;28;20124;-46
2023/01/25 11:26:39;;;;;;;5.32;3.40;;;;;;;18.87;46.28;101998.22;5054483;28;20056;-48
2023/01/25 11:29:13;;;;;;;5.22;3.50;;;;;;;18.87;46.13;101993.72;5053910;28;20422;-56
2023/01/25 11:31:45;;;;;;;3.58;3.00;;;;;;;18.87;46.10;101991.03;5053125;28;20041;-56
2023/01/25 11:34:15;;;;;;;4.88;2.75;;;;;;;18.87;46.26;101976.75;5053831;28;20063;-58
2023/01/25 11:37:26;;;;;;;4.38;2.83;;;;;;;18.88;46.05;101975.78;5054506;28;20048;-57
2023/01/25 11:39:59;;;;;;;5.00;3.13;;;;;;;18.88;46.11;101968.63;5053999;28;20061;-45
2023/01/25 11:42:51;;;;;;;5.15;3.15;;;;;;;18.88;46.08;101962.38;5054364;28;20045;-50
2023/01/25 11:45:45;;;;;;;4.20;3.20;;;;;;;18.88;46.23;101957.91;5054405;28;20053;-46
2023/01/25 11:48:25;;;;;;;6.03;3.03;;;;;;;18.88;46.05;101957.00;5054508;28;20041;-55
2023/01/25 11:51:13;;;;;;;6.47;3.47;;;;;;;18.89;46.13;101950.69;5054154;28;20060;-56
2023/01/25 11:53:49;;;;;;;3.83;3.42;;;;;;;18.89;46.32;101939.97;5054603;28;20052;-57